sensor_id;sensor_type;location;lat;lon;timestamp;pressure;altitude;pressure_sealevel;temperature;humidity
65376;BME280;51976;47.332;9.404;2022-12-29T00:01:59;92713.56;;;18.24;38.78
65376;BME280;51976;47.332;9.404;2022-12-29T00:04:24;92704.59;;;18.23;38.70
65376;BME280;51976;47.332;9.404;2022-12-29T00:06:52;92702.66;;;18.24;38.62
65376;BME280;51976;47.332;9.404;2022-12-29T00:09:17;92706.53;;;18.23;38.57
65376;BME280;51976;47.332;9.404;2022-12-29T00:11:42;92695.94;;;18.21;38.60
65376;BME280;51976;47.332;9.404;2022-12-29T00:14:09;92696.72;;;18.22;38.62
65376;BME280;51976;47.332;9.404;2022-12-29T00:16:55;92706.53;;;18.23;38.56
65376;BME280;51976;47.332;9.404;2022-12-29T00:19:20;92702.66;;;18.24;38.38
65376;BME280;51976;47.332;9.404;2022-12-29T00:22:07;92701.06;;;18.23;38.77
65376;BME280;51976;47.332;9.404;2022-12-29T00:24:53;92699.94;;;18.24;38.39
65376;BME280;51976;47.332;9.404;2022-12-29T00:27:38;92687.41;;;18.23;38.46
65376;BME280;51976;47.332;9.404;2022-12-29T00:30:24;92674.09;;;18.21;38.75
65376;BME280;51976;47.332;9.404;2022-12-29T00:33:14;92665.59;;;18.23;38.46
65376;BME280;51976;47.332;9.404;2022-12-29T00:36:14;92672.19;;;18.22;38.52
65376;BME280;51976;47.332;9.404;2022-12-29T00:38:45;92677.63;;;18.22;38.54
65376;BME280;51976;47.332;9.404;2022-12-29T00:41:31;92674.25;;;18.25;38.67
65376;BME280;51976;47.332;9.404;2022-12-29T00:44:17;92672.19;;;18.22;38.74
65376;BME280;51976;47.332;9.404;2022-12-29T00:46:43;92666.72;;;18.22;38.50
65376;BME280;51976;47.332;9.404;2022-12-29T00:49:10;92669.44;;;18.22;38.47
65376;BME280;51976;47.332;9.404;2022-12-29T00:52:01;92667.53;;;18.22;38.78
65376;BME280;51976;47.332;9.404;2022-12-29T00:54:28;92668.78;;;18.25;38.48
65376;BME280;51976;47.332;9.404;2022-12-29T00:56:54;92673.78;;;18.23;38.50
65376;BME280;51976;47.332;9.404;2022-12-29T00:59:20;92671.06;;;18.23;38.26
65376;BME280;51976;47.332;9.404;2022-12-29T01:01:46;92681.50;;;18.21;38.75
65376;BME280;51976;47.332;9.404;2022-12-29T01:04:12;92669.44;;;18.22;38.55
65376;BME280;51976;47.332;9.404;2022-12-29T01:06:39;92678.44;;;18.22;38.53
65376;BME280;51976;47.332;9.404;2022-12-29T01:09:06;92674.09;;;18.21;38.47
65376;BME280;51976;47.332;9.404;2022-12-29T01:11:51;92671.06;;;18.23;38.45
65376;BME280;51976;47.332;9.404;2022-12-29T01:14:17;92671.38;;;18.21;38.54
65376;BME280;51976;47.332;9.404;2022-12-29T01:16:43;92682.28;;;18.21;38.59
65376;BME280;51976;47.332;9.404;2022-12-29T01:19:09;92685.81;;;18.22;38.34
65376;BME280;51976;47.332;9.404;2022-12-29T01:21:34;92671.72;;;18.20;38.41
65376;BME280;51976;47.332;9.404;2022-12-29T01:24:00;92683.09;;;18.22;38.41
65376;BME280;51976;47.332;9.404;2022-12-29T01:26:25;92684.22;;;18.21;38.40
65376;BME280;51976;47.332;9.404;2022-12-29T01:28:51;92686.94;;;18.21;38.40
65376;BME280;51976;47.332;9.404;2022-12-29T01:31:16;92690.47;;;18.21;38.21
65376;BME280;51976;47.332;9.404;2022-12-29T01:33:42;92692.88;;;18.23;38.62
65376;BME280;51976;47.332;9.404;2022-12-29T01:36:10;92689.34;;;18.22;38.40
65376;BME280;51976;47.332;9.404;2022-12-29T01:38:37;92678.09;;;18.24;38.24
65376;BME280;51976;47.332;9.404;2022-12-29T01:41:04;92680.38;;;18.22;38.59
65376;BME280;51976;47.332;9.404;2022-12-29T01:43:41;92672.97;;;18.22;38.41
65376;BME280;51976;47.332;9.404;2022-12-29T01:46:21;92667.19;;;18.24;38.50
65376;BME280;51976;47.332;9.404;2022-12-29T01:48:52;92668.31;;;18.23;38.54
65376;BME280;51976;47.332;9.404;2022-12-29T01:51:19;92665.59;;;18.23;38.16
65376;BME280;51976;47.332;9.404;2022-12-29T01:53:46;92680.69;;;18.20;38.41
65376;BME280;51976;47.332;9.404;2022-12-29T01:56:14;92669.44;;;18.22;38.31
65376;BME280;51976;47.332;9.404;2022-12-29T01:58:45;92682.63;;;18.20;38.43
65376;BME280;51976;47.332;9.404;2022-12-29T02:01:11;92679.56;;;18.21;38.53
65376;BME280;51976;47.332;9.404;2022-12-29T02:03:37;92676.50;;;18.23;38.40
65376;BME280;51976;47.332;9.404;2022-12-29T02:06:11;92676.19;;;18.24;38.64
65376;BME280;51976;47.332;9.404;2022-12-29T02:08:39;92680.38;;;18.22;38.62
65376;BME280;51976;47.332;9.404;2022-12-29T02:11:05;92670.25;;;18.22;38.31
65376;BME280;51976;47.332;9.404;2022-12-29T02:13:32;92676.03;;;18.21;38.37
65376;BME280;51976;47.332;9.404;2022-12-29T02:16:14;92677.63;;;18.22;38.35
65376;BME280;51976;47.332;9.404;2022-12-29T02:18:59;92663.53;;;18.20;38.59
65376;BME280;51976;47.332;9.404;2022-12-29T02:22:04;92683.09;;;18.22;38.35
65376;BME280;51976;47.332;9.404;2022-12-29T02:24:49;92667.53;;;18.22;38.30
65376;BME280;51976;47.332;9.404;2022-12-29T02:27:34;92674.09;;;18.21;38.14
65376;BME280;51976;47.332;9.404;2022-12-29T02:30:30;92670.25;;;18.22;38.41
65376;BME280;51976;47.332;9.404;2022-12-29T02:33:21;92677.63;;;18.22;38.00
65376;BME280;51976;47.332;9.404;2022-12-29T02:36:00;92672.97;;;18.22;38.24
65376;BME280;51976;47.332;9.404;2022-12-29T02:38:47;92671.06;;;18.23;38.33
65376;BME280;51976;47.332;9.404;2022-12-29T02:41:37;92678.78;;;18.21;38.41
65376;BME280;51976;47.332;9.404;2022-12-29T02:44:16;92679.56;;;18.21;38.25
65376;BME280;51976;47.332;9.404;2022-12-29T02:46:54;92671.84;;;18.23;38.30
65376;BME280;51976;47.332;9.404;2022-12-29T02:49:34;92673.78;;;18.23;38.21
65376;BME280;51976;47.332;9.404;2022-12-29T02:52:07;92668.31;;;18.23;38.25
65376;BME280;51976;47.332;9.404;2022-12-29T02:54:35;92667.19;;;18.24;38.36
65376;BME280;51976;47.332;9.404;2022-12-29T02:57:33;92657.75;;;18.21;38.19
65376;BME280;51976;47.332;9.404;2022-12-29T03:00:11;92660.47;;;18.21;38.41
65376;BME280;51976;47.332;9.404;2022-12-29T03:03:11;92653.09;;;18.22;38.29
65376;BME280;51976;47.332;9.404;2022-12-29T03:05:50;92648.44;;;18.22;38.20
65376;BME280;51976;47.332;9.404;2022-12-29T03:08:42;92645.69;;;18.22;38.24
65376;BME280;51976;47.332;9.404;2022-12-29T03:11:11;92638.31;;;18.23;38.30
65376;BME280;51976;47.332;9.404;2022-12-29T03:14:27;92633.66;;;18.23;38.25
65376;BME280;51976;47.332;9.404;2022-12-29T03:17:35;92631.25;;;18.22;38.18
65376;BME280;51976;47.332;9.404;2022-12-29T03:20:07;92636.72;;;18.22;38.53
65376;BME280;51976;47.332;9.404;2022-12-29T03:22:38;92631.25;;;18.22;38.12
65376;BME280;51976;47.332;9.404;2022-12-29T03:25:20;92626.94;;;18.21;38.11
65376;BME280;51976;47.332;9.404;2022-12-29T03:27:51;92636.25;;;18.20;38.29
65376;BME280;51976;47.332;9.404;2022-12-29T03:30:18;92639.78;;;18.20;38.40
65376;BME280;51976;47.332;9.404;2022-12-29T03:32:48;92638.97;;;18.20;38.16
65376;BME280;51976;47.332;9.404;2022-12-29T03:35:17;92633.19;;;18.21;38.19
65376;BME280;51976;47.332;9.404;2022-12-29T03:37:52;92632.38;;;18.21;38.14
65376;BME280;51976;47.332;9.404;2022-12-29T03:40:21;92636.72;;;18.22;38.32
65376;BME280;51976;47.332;9.404;2022-12-29T03:42:49;92629.66;;;18.21;38.28
65376;BME280;51976;47.332;9.404;2022-12-29T03:45:15;92630.78;;;18.20;38.16
65376;BME280;51976;47.332;9.404;2022-12-29T03:47:40;92627.25;;;18.19;38.32
65376;BME280;51976;47.332;9.404;2022-12-29T03:50:06;92625.34;;;18.20;38.45
65376;BME280;51976;47.332;9.404;2022-12-29T03:52:33;92620.69;;;18.20;38.15
65376;BME280;51976;47.332;9.404;2022-12-29T03:54:59;92624.19;;;18.21;38.24
65376;BME280;51976;47.332;9.404;2022-12-29T03:57:24;92630.31;;;18.18;38.19
65376;BME280;51976;47.332;9.404;2022-12-29T03:59:50;92626.47;;;18.19;38.33
65376;BME280;51976;47.332;9.404;2022-12-29T04:02:15;92623.72;;;18.19;38.07
65376;BME280;51976;47.332;9.404;2022-12-29T04:04:40;92619.88;;;18.20;38.31
65376;BME280;51976;47.332;9.404;2022-12-29T04:07:06;92616.00;;;18.21;38.43
65376;BME280;51976;47.332;9.404;2022-12-29T04:09:31;92618.06;;;18.24;38.04
65376;BME280;51976;47.332;9.404;2022-12-29T04:11:56;92629.31;;;18.22;38.19
65376;BME280;51976;47.332;9.404;2022-12-29T04:14:22;92618.75;;;18.21;38.25
65376;BME280;51976;47.332;9.404;2022-12-29T04:16:47;92614.09;;;18.21;38.37
65376;BME280;51976;47.332;9.404;2022-12-29T04:19:13;92612.81;;;18.19;38.22
65376;BME280;51976;47.332;9.404;2022-12-29T04:21:38;92618.28;;;18.19;38.41
65376;BME280;51976;47.332;9.404;2022-12-29T04:24:05;92622.59;;;18.20;38.16
65376;BME280;51976;47.332;9.404;2022-12-29T04:26:32;92621.81;;;18.19;38.41
65376;BME280;51976;47.332;9.404;2022-12-29T04:28:57;92629.66;;;18.21;38.21
65376;BME280;51976;47.332;9.404;2022-12-29T04:31:22;92618.75;;;18.21;38.02
65376;BME280;51976;47.332;9.404;2022-12-29T04:33:48;92607.03;;;18.20;38.25
65376;BME280;51976;47.332;9.404;2022-12-29T04:36:13;92614.41;;;18.20;38.31
65376;BME280;51976;47.332;9.404;2022-12-29T04:38:39;92621.00;;;18.19;38.10
65376;BME280;51976;47.332;9.404;2022-12-29T04:41:04;92622.13;;;18.18;38.35
65376;BME280;51976;47.332;9.404;2022-12-29T04:43:29;92614.41;;;18.20;38.04
65376;BME280;51976;47.332;9.404;2022-12-29T04:45:55;92614.41;;;18.20;38.33
65376;BME280;51976;47.332;9.404;2022-12-29T04:48:20;92619.88;;;18.20;38.23
65376;BME280;51976;47.332;9.404;2022-12-29T04:50:48;92615.22;;;18.20;38.17
65376;BME280;51976;47.332;9.404;2022-12-29T04:53:14;92617.16;;;18.20;38.18
65376;BME280;51976;47.332;9.404;2022-12-29T04:55:40;92608.16;;;18.19;38.17
65376;BME280;51976;47.332;9.404;2022-12-29T04:58:05;92598.03;;;18.20;38.33
65376;BME280;51976;47.332;9.404;2022-12-29T05:00:30;92603.84;;;18.18;38.02
65376;BME280;51976;47.332;9.404;2022-12-29T05:02:56;92603.03;;;18.18;38.05
65376;BME280;51976;47.332;9.404;2022-12-29T05:05:21;92595.31;;;18.20;38.19
65376;BME280;51976;47.332;9.404;2022-12-29T05:07:46;92611.69;;;18.20;38.45
65376;BME280;51976;47.332;9.404;2022-12-29T05:10:12;92594.53;;;18.19;38.00
65376;BME280;51976;47.332;9.404;2022-12-29T05:12:37;92598.03;;;18.20;38.17
65376;BME280;51976;47.332;9.404;2022-12-29T05:15:05;92589.06;;;18.19;38.09
65376;BME280;51976;47.332;9.404;2022-12-29T05:17:31;92588.25;;;18.19;38.13
65376;BME280;51976;47.332;9.404;2022-12-29T05:19:57;92589.06;;;18.19;38.31
65376;BME280;51976;47.332;9.404;2022-12-29T05:22:23;92586.22;;;18.16;38.26
65376;BME280;51976;47.332;9.404;2022-12-29T05:24:48;92583.94;;;18.18;38.29
65376;BME280;51976;47.332;9.404;2022-12-29T05:27:14;92579.28;;;18.18;38.10
65376;BME280;51976;47.332;9.404;2022-12-29T05:29:39;92566.78;;;18.17;38.05
65376;BME280;51976;47.332;9.404;2022-12-29T05:32:05;92560.19;;;18.18;38.38
65376;BME280;51976;47.332;9.404;2022-12-29T05:34:30;92557.78;;;18.17;38.32
65376;BME280;51976;47.332;9.404;2022-12-29T05:36:55;92567.56;;;18.18;38.32
65376;BME280;51976;47.332;9.404;2022-12-29T05:39:21;92576.88;;;18.17;38.37
65376;BME280;51976;47.332;9.404;2022-12-29T05:41:46;92574.97;;;18.17;38.29
65376;BME280;51976;47.332;9.404;2022-12-29T05:44:12;92564.38;;;18.16;38.29
65376;BME280;51976;47.332;9.404;2022-12-29T05:46:37;92569.50;;;18.17;38.19
65376;BME280;51976;47.332;9.404;2022-12-29T05:49:03;92564.84;;;18.18;38.00
65376;BME280;51976;47.332;9.404;2022-12-29T05:51:28;92572.22;;;18.17;38.07
65376;BME280;51976;47.332;9.404;2022-12-29T05:53:54;92573.03;;;18.18;38.34
65376;BME280;51976;47.332;9.404;2022-12-29T05:56:19;92578.47;;;18.18;38.19
65376;BME280;51976;47.332;9.404;2022-12-29T05:58:45;92578.47;;;18.18;38.25
65376;BME280;51976;47.332;9.404;2022-12-29T06:01:10;92574.97;;;18.17;38.11
65376;BME280;51976;47.332;9.404;2022-12-29T06:03:35;92571.44;;;18.17;38.15
65376;BME280;51976;47.332;9.404;2022-12-29T06:06:01;92574.97;;;18.17;38.22
65376;BME280;51976;47.332;9.404;2022-12-29T06:08:26;92569.84;;;18.16;38.29
65376;BME280;51976;47.332;9.404;2022-12-29T06:10:51;92566.31;;;18.15;38.03
65376;BME280;51976;47.332;9.404;2022-12-29T06:13:17;92567.09;;;18.16;38.36
65376;BME280;51976;47.332;9.404;2022-12-29T06:15:42;92573.03;;;18.18;38.32
65376;BME280;51976;47.332;9.404;2022-12-29T06:18:07;92573.03;;;18.18;38.14
65376;BME280;51976;47.332;9.404;2022-12-29T06:20:33;92569.16;;;18.19;38.13
65376;BME280;51976;47.332;9.404;2022-12-29T06:22:58;92575.44;;;18.19;38.03
65376;BME280;51976;47.332;9.404;2022-12-29T06:25:24;92568.84;;;18.20;38.22
65376;BME280;51976;47.332;9.404;2022-12-29T06:27:49;92566.91;;;18.21;38.15
65376;BME280;51976;47.332;9.404;2022-12-29T06:30:15;92571.91;;;18.19;38.10
65376;BME280;51976;47.332;9.404;2022-12-29T06:32:42;92570.75;;;18.20;38.15
65376;BME280;51976;47.332;9.404;2022-12-29T06:35:07;92566.78;;;18.17;38.30
65376;BME280;51976;47.332;9.404;2022-12-29T06:37:33;92576.88;;;18.17;38.19
65376;BME280;51976;47.332;9.404;2022-12-29T06:39:58;92576.09;;;18.16;38.08
65376;BME280;51976;47.332;9.404;2022-12-29T06:42:24;92582.34;;;18.17;38.18
65376;BME280;51976;47.332;9.404;2022-12-29T06:44:49;92585.06;;;18.17;38.23
65376;BME280;51976;47.332;9.404;2022-12-29T06:47:15;92591.66;;;18.16;38.38
65376;BME280;51976;47.332;9.404;2022-12-29T06:49:40;92588.13;;;18.15;38.05
65376;BME280;51976;47.332;9.404;2022-12-29T06:52:06;92603.72;;;18.15;38.20
65376;BME280;51976;47.332;9.404;2022-12-29T06:54:31;92603.03;;;18.18;38.15
65376;BME280;51976;47.332;9.404;2022-12-29T06:56:57;92609.63;;;18.17;37.96
65376;BME280;51976;47.332;9.404;2022-12-29T06:59:23;92611.56;;;18.16;38.32
65376;BME280;51976;47.332;9.404;2022-12-29T07:01:49;92609.97;;;18.15;38.09
65376;BME280;51976;47.332;9.404;2022-12-29T07:04:15;92617.00;;;18.16;38.23
65376;BME280;51976;47.332;9.404;2022-12-29T07:06:40;92622.00;;;18.14;38.39
65376;BME280;51976;47.332;9.404;2022-12-29T07:09:06;92635.31;;;18.16;38.14
65376;BME280;51976;47.332;9.404;2022-12-29T07:11:32;92637.25;;;18.15;38.31
65376;BME280;51976;47.332;9.404;2022-12-29T07:13:57;92645.09;;;18.17;38.17
65376;BME280;51976;47.332;9.404;2022-12-29T07:16:22;92643.03;;;18.14;38.07
65376;BME280;51976;47.332;9.404;2022-12-29T07:18:48;92646.22;;;18.16;38.31
65376;BME280;51976;47.332;9.404;2022-12-29T07:21:13;92642.69;;;18.15;38.07
65376;BME280;51976;47.332;9.404;2022-12-29T07:23:39;92650.56;;;18.17;37.97
65376;BME280;51976;47.332;9.404;2022-12-29T07:26:06;92656.66;;;18.14;38.13
65376;BME280;51976;47.332;9.404;2022-12-29T07:28:32;92654.41;;;18.16;38.13
65376;BME280;51976;47.332;9.404;2022-12-29T07:30:58;92661.00;;;18.15;38.05
65376;BME280;51976;47.332;9.404;2022-12-29T07:33:24;92676.22;;;18.16;38.24
65376;BME280;51976;47.332;9.404;2022-12-29T07:35:50;92669.19;;;18.15;38.15
65376;BME280;51976;47.332;9.404;2022-12-29T07:38:16;92671.78;;;18.11;38.13
65376;BME280;51976;47.332;9.404;2022-12-29T07:40:42;92673.84;;;18.14;37.93
65376;BME280;51976;47.332;9.404;2022-12-29T07:43:08;92677.84;;;18.17;38.04
65376;BME280;51976;47.332;9.404;2022-12-29T07:45:34;92686.81;;;18.17;38.09
65376;BME280;51976;47.332;9.404;2022-12-29T07:47:59;92682.50;;;18.16;38.16
65376;BME280;51976;47.332;9.404;2022-12-29T07:50:24;92685.34;;;18.20;38.22
65376;BME280;51976;47.332;9.404;2022-12-29T07:52:50;92688.75;;;18.17;38.12
65376;BME280;51976;47.332;9.404;2022-12-29T07:55:16;92683.63;;;18.15;37.98
65376;BME280;51976;47.332;9.404;2022-12-29T07:57:41;92692.94;;;18.14;37.93
65376;BME280;51976;47.332;9.404;2022-12-29T08:00:08;92693.41;;;18.16;38.19
65376;BME280;51976;47.332;9.404;2022-12-29T08:02:34;92698.38;;;18.14;38.01
65376;BME280;51976;47.332;9.404;2022-12-29T08:05:00;92704.31;;;18.16;37.98
65376;BME280;51976;47.332;9.404;2022-12-29T08:07:25;92714.44;;;18.16;38.41
65376;BME280;51976;47.332;9.404;2022-12-29T08:09:51;92701.91;;;18.15;38.03
65376;BME280;51976;47.332;9.404;2022-12-29T08:12:16;92709.63;;;18.13;38.26
65376;BME280;51976;47.332;9.404;2022-12-29T08:14:42;92713.16;;;18.13;37.87
65376;BME280;51976;47.332;9.404;2022-12-29T08:17:08;92713.97;;;18.14;38.02
65376;BME280;51976;47.332;9.404;2022-12-29T08:19:33;92712.50;;;18.16;38.08
65376;BME280;51976;47.332;9.404;2022-12-29T08:21:59;92728.88;;;18.16;38.10
65376;BME280;51976;47.332;9.404;2022-12-29T08:24:24;92732.25;;;18.13;38.17
65376;BME280;51976;47.332;9.404;2022-12-29T08:26:49;92724.88;;;18.14;38.24
65376;BME280;51976;47.332;9.404;2022-12-29T08:29:15;92732.41;;;18.17;37.96
65376;BME280;51976;47.332;9.404;2022-12-29T08:31:40;92732.41;;;18.17;38.15
65376;BME280;51976;47.332;9.404;2022-12-29T08:34:06;92718.28;;;18.15;38.19
65376;BME280;51976;47.332;9.404;2022-12-29T08:36:31;92724.53;;;18.15;38.21
65376;BME280;51976;47.332;9.404;2022-12-29T08:38:57;92734.66;;;18.15;37.85
65376;BME280;51976;47.332;9.404;2022-12-29T08:41:22;92728.06;;;18.16;37.95
65376;BME280;51976;47.332;9.404;2022-12-29T08:43:48;92706.91;;;18.13;37.89
65376;BME280;51976;47.332;9.404;2022-12-29T08:46:15;92706.09;;;18.12;38.09
65376;BME280;51976;47.332;9.404;2022-12-29T08:48:40;92698.72;;;18.13;38.14
65376;BME280;51976;47.332;9.404;2022-12-29T08:51:05;92699.53;;;18.13;38.06
65376;BME280;51976;47.332;9.404;2022-12-29T08:53:31;92701.13;;;18.14;38.03
65376;BME280;51976;47.332;9.404;2022-12-29T08:55:58;92701.44;;;18.13;38.09
65376;BME280;51976;47.332;9.404;2022-12-29T08:58:25;92704.19;;;18.13;38.19
65376;BME280;51976;47.332;9.404;2022-12-29T09:00:53;92699.84;;;18.12;37.97
65376;BME280;51976;47.332;9.404;2022-12-29T09:03:19;92699.06;;;18.11;38.03
65376;BME280;51976;47.332;9.404;2022-12-29T09:05:48;92697.44;;;18.10;38.00
65376;BME280;51976;47.332;9.404;2022-12-29T09:08:14;92697.44;;;18.10;37.85
65376;BME280;51976;47.332;9.404;2022-12-29T09:10:39;92702.56;;;18.12;38.01
65376;BME280;51976;47.332;9.404;2022-12-29T09:13:04;92706.44;;;18.11;37.79
65376;BME280;51976;47.332;9.404;2022-12-29T09:15:30;92702.91;;;18.10;38.14
65376;BME280;51976;47.332;9.404;2022-12-29T09:17:55;92712.69;;;18.11;38.22
65376;BME280;51976;47.332;9.404;2022-12-29T09:20:20;92704.50;;;18.11;38.04
65376;BME280;51976;47.332;9.404;2022-12-29T09:22:47;92703.72;;;18.11;38.13
65376;BME280;51976;47.332;9.404;2022-12-29T09:25:13;92700.97;;;18.11;38.04
65376;BME280;51976;47.332;9.404;2022-12-29T09:27:38;92694.38;;;18.12;38.16
65376;BME280;51976;47.332;9.404;2022-12-29T09:30:06;92687.34;;;18.11;37.96
65376;BME280;51976;47.332;9.404;2022-12-29T09:32:32;92695.53;;;18.11;37.97
65376;BME280;51976;47.332;9.404;2022-12-29T09:34:58;92690.88;;;18.11;38.12
65376;BME280;51976;47.332;9.404;2022-12-29T09:37:23;92690.88;;;18.11;38.22
65376;BME280;51976;47.332;9.404;2022-12-29T09:39:48;92686.22;;;18.12;37.92
65376;BME280;51976;47.332;9.404;2022-12-29T09:42:20;92675.63;;;18.10;38.06
65376;BME280;51976;47.332;9.404;2022-12-29T09:45:06;92669.03;;;18.11;38.36
65376;BME280;51976;47.332;9.404;2022-12-29T09:47:35;92675.28;;;18.12;38.20
65376;BME280;51976;47.332;9.404;2022-12-29T09:50:19;92673.69;;;18.11;38.17
65376;BME280;51976;47.332;9.404;2022-12-29T09:52:55;92670.97;;;18.11;38.21
65376;BME280;51976;47.332;9.404;2022-12-29T09:55:29;92678.03;;;18.12;38.29
65376;BME280;51976;47.332;9.404;2022-12-29T09:58:02;92669.84;;;18.12;38.10
65376;BME280;51976;47.332;9.404;2022-12-29T10:00:37;92667.13;;;18.12;37.97
65376;BME280;51976;47.332;9.404;2022-12-29T10:03:18;92669.84;;;18.12;38.10
65376;BME280;51976;47.332;9.404;2022-12-29T10:06:01;92660.84;;;18.11;38.36
65376;BME280;51976;47.332;9.404;2022-12-29T10:08:37;92672.56;;;18.12;37.96
65376;BME280;51976;47.332;9.404;2022-12-29T10:14:29;92667.13;;;18.12;37.96
65376;BME280;51976;47.332;9.404;2022-12-29T10:17:15;92669.84;;;18.12;38.18
65376;BME280;51976;47.332;9.404;2022-12-29T10:20:15;92670.63;;;18.12;37.96
65376;BME280;51976;47.332;9.404;2022-12-29T10:25:41;92672.56;;;18.12;37.97
65376;BME280;51976;47.332;9.404;2022-12-29T10:28:17;92669.84;;;18.12;38.09
65376;BME280;51976;47.332;9.404;2022-12-29T10:30:46;92655.41;;;18.11;38.03
65376;BME280;51976;47.332;9.404;2022-12-29T10:33:16;92669.03;;;18.11;37.90
65376;BME280;51976;47.332;9.404;2022-12-29T10:35:43;92655.41;;;18.11;37.90
65376;BME280;51976;47.332;9.404;2022-12-29T10:38:33;92655.41;;;18.11;38.09
65376;BME280;51976;47.332;9.404;2022-12-29T10:41:11;92651.53;;;18.12;38.07
65376;BME280;51976;47.332;9.404;2022-12-29T10:43:47;92651.88;;;18.11;37.96
65376;BME280;51976;47.332;9.404;2022-12-29T10:46:18;92643.69;;;18.11;38.13
65376;BME280;51976;47.332;9.404;2022-12-29T10:48:45;92649.16;;;18.11;38.37
65376;BME280;51976;47.332;9.404;2022-12-29T10:51:28;92640.63;;;18.12;38.11
65376;BME280;51976;47.332;9.404;2022-12-29T10:53:58;92637.44;;;18.10;38.16
65376;BME280;51976;47.332;9.404;2022-12-29T10:56:33;92629.25;;;18.10;38.29
65376;BME280;51976;47.332;9.404;2022-12-29T10:59:06;92635.50;;;18.11;38.08
65376;BME280;51976;47.332;9.404;2022-12-29T11:01:45;92631.50;;;18.08;38.05
65376;BME280;51976;47.332;9.404;2022-12-29T11:04:43;92626.84;;;18.09;38.07
65376;BME280;51976;47.332;9.404;2022-12-29T11:07:11;92626.84;;;18.09;38.35
65376;BME280;51976;47.332;9.404;2022-12-29T11:09:38;92630.72;;;18.08;38.15
65376;BME280;51976;47.332;9.404;2022-12-29T11:12:26;92624.94;;;18.09;38.42
65376;BME280;51976;47.332;9.404;2022-12-29T11:15:14;92633.13;;;18.09;38.30
65376;BME280;51976;47.332;9.404;2022-12-29T11:17:51;92610.97;;;18.11;38.14
65376;BME280;51976;47.332;9.404;2022-12-29T11:20:35;92608.56;;;18.09;38.24
65376;BME280;51976;47.332;9.404;2022-12-29T11:23:04;92612.88;;;18.10;38.06
65376;BME280;51976;47.332;9.404;2022-12-29T11:25:30;92610.97;;;18.11;38.13
65376;BME280;51976;47.332;9.404;2022-12-29T11:28:12;92605.50;;;18.11;38.25
65376;BME280;51976;47.332;9.404;2022-12-29T11:30:39;92595.72;;;18.10;38.13
65376;BME280;51976;47.332;9.404;2022-12-29T11:33:04;92598.91;;;18.12;38.31
65376;BME280;51976;47.332;9.404;2022-12-29T11:35:33;92593.00;;;18.10;38.43
65376;BME280;51976;47.332;9.404;2022-12-29T11:37:58;92582.41;;;18.08;38.26
65376;BME280;51976;47.332;9.404;2022-12-29T11:40:25;92583.34;;;18.12;38.00
65376;BME280;51976;47.332;9.404;2022-12-29T11:42:56;92587.34;;;18.15;38.41
65376;BME280;51976;47.332;9.404;2022-12-29T11:45:24;92585.41;;;18.15;38.80
65376;BME280;51976;47.332;9.404;2022-12-29T11:47:53;92581.75;;;18.11;47.55
65376;BME280;51976;47.332;9.404;2022-12-29T11:50:22;92574.41;;;17.91;37.52
65376;BME280;51976;47.332;9.404;2022-12-29T11:52:49;92578.97;;;17.78;36.79
65376;BME280;51976;47.332;9.404;2022-12-29T11:55:20;92581.66;;;17.87;37.15
65376;BME280;51976;47.332;9.404;2022-12-29T11:57:48;92580.31;;;17.93;37.20
65376;BME280;51976;47.332;9.404;2022-12-29T12:00:18;92573.72;;;17.94;36.59
65376;BME280;51976;47.332;9.404;2022-12-29T12:02:51;92576.94;;;17.96;37.10
65376;BME280;51976;47.332;9.404;2022-12-29T12:05:22;92577.84;;;18.00;37.75
65376;BME280;51976;47.332;9.404;2022-12-29T12:07:54;92568.22;;;18.03;38.42
65376;BME280;51976;47.332;9.404;2022-12-29T12:10:27;92569.91;;;18.07;38.67
65376;BME280;51976;47.332;9.404;2022-12-29T12:13:02;92560.59;;;18.08;38.68
65376;BME280;51976;47.332;9.404;2022-12-29T12:15:39;92547.75;;;18.09;38.73
65376;BME280;51976;47.332;9.404;2022-12-29T12:18:17;92556.88;;;18.13;38.55
65376;BME280;51976;47.332;9.404;2022-12-29T12:20:54;92554.59;;;18.15;39.27
65376;BME280;51976;47.332;9.404;2022-12-29T12:23:48;92549.94;;;18.15;40.85
65376;BME280;51976;47.332;9.404;2022-12-29T12:26:32;92543.03;;;18.18;43.34
65376;BME280;51976;47.332;9.404;2022-12-29T12:29:05;92537.56;;;18.18;44.77
65376;BME280;51976;47.332;9.404;2022-12-29T12:31:54;92529.38;;;18.18;44.60
65376;BME280;51976;47.332;9.404;2022-12-29T12:34:40;92537.56;;;18.18;44.04
65376;BME280;51976;47.332;9.404;2022-12-29T12:37:37;92541.44;;;18.17;43.77
65376;BME280;51976;47.332;9.404;2022-12-29T12:43:37;92541.56;;;18.20;43.26
65376;BME280;51976;47.332;9.404;2022-12-29T12:46:25;92539.97;;;18.19;42.76
65376;BME280;51976;47.332;9.404;2022-12-29T12:49:47;92534.84;;;18.18;43.04
65376;BME280;51976;47.332;9.404;2022-12-29T12:52:17;92531.78;;;18.19;42.93
65376;BME280;51976;47.332;9.404;2022-12-29T12:55:06;92529.72;;;18.16;42.84
65376;BME280;51976;47.332;9.404;2022-12-29T12:57:58;92520.84;;;18.19;42.52
65376;BME280;51976;47.332;9.404;2022-12-29T13:00:33;92516.06;;;18.16;42.48
65376;BME280;51976;47.332;9.404;2022-12-29T13:03:12;92519.59;;;18.17;42.56
65376;BME280;51976;47.332;9.404;2022-12-29T13:06:20;92518.00;;;18.16;42.44
65376;BME280;51976;47.332;9.404;2022-12-29T13:08:54;92514.16;;;18.17;42.21
65376;BME280;51976;47.332;9.404;2022-12-29T13:12:19;92521.19;;;18.18;42.10
65376;BME280;51976;47.332;9.404;2022-12-29T13:14:52;92520.06;;;18.19;42.21
65376;BME280;51976;47.332;9.404;2022-12-29T13:17:28;92519.59;;;18.17;41.54
65376;BME280;51976;47.332;9.404;2022-12-29T13:20:15;92525.06;;;18.17;41.85
65376;BME280;51976;47.332;9.404;2022-12-29T13:22:59;92518.69;;;18.13;41.28
65376;BME280;51976;47.332;9.404;2022-12-29T13:25:41;92527.31;;;18.15;41.24
65376;BME280;51976;47.332;9.404;2022-12-29T13:28:31;92520.59;;;18.12;41.57
65376;BME280;51976;47.332;9.404;2022-12-29T13:34:29;92520.59;;;18.12;41.41
65376;BME280;51976;47.332;9.404;2022-12-29T13:37:00;92515.16;;;18.12;41.23